Time;durP1;ratioP1;P1;durP2;ratioP2;P2;SDS_P1;SDS_P2;PMS_P1;PMS_P2;Temp;Humidity;BMP_temperature;BMP_pressure;BME280_temperature;BME280_humidity;BME280_pressure;Samples;Min_cycle;Max_cycle;Signal;HPM_P1;HPM_P2
2023/11/03 00:00:09;;;;;;;13.10;1.50;;;;;;;-145.69;66.97;52325.56;5114260;28;20201;-81
2023/11/03 00:02:36;;;;;;;3.97;0.93;;;;;;;-145.69;66.23;52293.88;5114292;28;20295;-81
2023/11/03 00:05:02;;;;;;;10.93;1.20;;;;;;;-145.69;66.38;52317.66;5114075;28;20304;-82
2023/11/03 00:07:30;;;;;;;7.83;1.17;;;;;;;-145.69;66.94;52295.84;5113551;28;20288;-81
2023/11/03 00:09:57;;;;;;;5.97;1.17;;;;;;;-145.69;66.28;52313.69;5113916;28;20222;-81
2023/11/03 00:12:24;;;;;;;4.67;1.10;;;;;;;-145.69;65.97;52313.69;5113970;28;20284;-81
2023/11/03 00:14:52;;;;;;;11.47;1.13;;;;;;;-145.69;66.63;52283.97;5113920;28;20212;-82
2023/11/03 00:17:18;;;;;;;7.90;1.53;;;;;;;-145.69;65.91;52258.22;5113441;28;20647;-81
2023/11/03 00:19:46;;;;;;;6.00;1.10;;;;;;;-145.69;66.30;52285.97;5113961;28;20198;-81
2023/11/03 00:22:13;;;;;;;6.47;1.03;;;;;;;-145.69;66.53;52297.84;5113851;28;20656;-82
2023/11/03 00:24:40;;;;;;;12.27;1.20;;;;;;;-145.69;66.43;52307.75;5113902;28;20201;-82
2023/11/03 00:27:07;;;;;;;4.73;1.10;;;;;;;-145.69;66.61;52305.75;5113522;28;20284;-82
2023/11/03 00:29:33;;;;;;;4.40;1.37;;;;;;;-145.69;66.53;52283.97;5113530;28;20224;-82
2023/11/03 00:32:03;;;;;;;4.90;1.30;;;;;;;-145.69;66.83;52285.97;5113573;28;20197;-82
2023/11/03 00:34:29;;;;;;;5.37;1.20;;;;;;;-145.69;67.48;52309.72;5113875;28;20293;-82
2023/11/03 00:36:56;;;;;;;3.13;1.00;;;;;;;-145.69;66.55;52343.38;5113156;28;20282;-82
2023/11/03 00:39:23;;;;;;;3.40;1.17;;;;;;;-145.69;67.12;52278.03;5113526;28;20568;-82
2023/11/03 00:41:51;;;;;;;6.87;1.37;;;;;;;-145.69;66.83;52321.59;5113538;28;20197;-82
2023/11/03 00:44:18;;;;;;;6.33;1.20;;;;;;;-145.69;66.39;52315.66;5113537;28;20537;-82
2023/11/03 00:46:45;;;;;;;2.70;0.87;;;;;;;-145.69;66.63;52327.53;5113395;28;20242;-82
2023/11/03 00:49:14;;;;;;;3.90;0.97;;;;;;;-145.69;66.72;52266.16;5113366;28;20221;-81
2023/11/03 00:51:41;;;;;;;5.77;1.57;;;;;;;-145.69;67.29;52270.13;5113420;28;20223;-82
2023/11/03 00:54:07;;;;;;;2.63;1.40;;;;;;;-145.69;67.42;52274.06;5113525;28;20201;-82
2023/11/03 00:56:34;;;;;;;4.70;0.90;;;;;;;-145.69;66.66;52293.88;5113046;28;20236;-82
2023/11/03 00:59:02;;;;;;;4.87;1.10;;;;;;;-145.69;66.33;52299.81;5113344;28;20201;-82
2023/11/03 01:01:29;;;;;;;6.63;1.67;;;;;;;-145.69;65.97;52315.66;5113158;28;20201;-82
2023/11/03 01:03:56;;;;;;;8.05;1.13;;;;;;;-145.69;66.62;52307.75;5112323;28;20974;-82
2023/11/03 01:06:23;;;;;;;2.20;0.87;;;;;;;-145.69;66.73;52287.94;5112261;28;20237;-82
2023/11/03 01:08:51;;;;;;;4.40;1.10;;;;;;;-145.69;66.24;52327.53;5112761;28;20656;-82
2023/11/03 01:11:17;;;;;;;6.93;1.10;;;;;;;-145.69;67.01;52287.94;5112851;28;20194;-82
2023/11/03 01:13:44;;;;;;;3.80;1.00;;;;;;;-145.69;67.20;52287.94;5112846;28;20197;-82
2023/11/03 01:16:10;;;;;;;6.13;1.30;;;;;;;-145.69;66.64;52280.00;5113041;28;20648;-82
2023/11/03 01:18:39;;;;;;;3.47;1.10;;;;;;;-145.69;66.68;52309.72;5113378;28;20195;-81
2023/11/03 01:21:12;;;;;;;5.20;1.10;;;;;;;-145.69;66.76;52321.59;5113391;28;20201;-82
2023/11/03 01:23:41;;;;;;;5.37;1.17;;;;;;;-145.69;67.10;52287.94;5095717;28;20233;-82
2023/11/03 01:26:08;;;;;;;3.37;1.47;;;;;;;-145.69;66.31;52313.69;5092970;28;20202;-82
2023/11/03 01:28:34;;;;;;;10.43;1.43;;;;;;;-145.69;66.43;52309.72;5092974;28;20217;-81
2023/11/03 01:31:01;;;;;;;3.93;0.80;;;;;;;-145.69;66.06;52285.97;5092726;28;20229;-82
2023/11/03 01:33:28;;;;;;;3.53;1.13;;;;;;;-145.69;67.19;52285.97;5110300;28;20201;-82
2023/11/03 01:35:55;;;;;;;5.70;1.03;;;;;;;-145.69;66.34;52331.50;5112807;28;20659;-82
2023/11/03 01:38:21;;;;;;;6.73;1.10;;;;;;;-145.69;65.65;52297.84;5112529;28;20205;-81
2023/11/03 01:40:53;;;;;;;2.00;0.90;;;;;;;-145.69;66.50;52282.00;5113031;28;20674;-82
2023/11/03 01:43:20;;;;;;;6.20;1.10;;;;;;;-145.69;65.91;52283.97;5112891;28;20225;-82
2023/11/03 01:45:47;;;;;;;2.40;1.00;;;;;;;-145.69;66.85;52274.06;5112872;28;20201;-83
2023/11/03 01:48:13;;;;;;;1.60;0.87;;;;;;;-145.69;66.11;52341.41;5112930;28;20204;-82
2023/11/03 01:50:40;;;;;;;3.43;0.80;;;;;;;-145.69;67.14;52319.63;5112828;28;20221;-82
2023/11/03 01:53:07;;;;;;;1.93;0.90;;;;;;;-145.69;66.82;52313.69;5112668;28;20619;-82
2023/11/03 01:55:34;;;;;;;2.93;0.87;;;;;;;-145.69;66.38;52293.88;5112890;28;20312;-81
2023/11/03 01:58:02;;;;;;;6.87;1.00;;;;;;;-145.69;66.31;52282.00;5113056;28;20636;-82
2023/11/03 02:00:29;;;;;;;4.00;1.23;;;;;;;-145.69;66.83;52315.66;5112790;28;20220;-82
2023/11/03 02:02:55;;;;;;;4.83;1.00;;;;;;;-145.69;66.46;52272.09;5112745;28;20208;-82
2023/11/03 02:05:22;;;;;;;4.23;1.27;;;;;;;-145.69;66.01;52321.59;5112511;28;20244;-81
2023/11/03 02:07:49;;;;;;;7.13;1.20;;;;;;;-145.69;66.25;52339.44;5112260;28;20204;-82
2023/11/03 02:10:16;;;;;;;3.03;1.60;;;;;;;-145.69;66.25;52305.75;5112871;28;20245;-82
2023/11/03 02:12:42;;;;;;;6.17;1.53;;;;;;;-145.69;65.86;52309.72;5112303;28;20193;-81
2023/11/03 02:15:10;;;;;;;4.63;0.90;;;;;;;-145.69;67.58;52297.84;5115937;28;20656;-82
2023/11/03 02:17:38;;;;;;;3.30;0.80;;;;;;;-145.69;67.77;52307.75;5116434;28;20254;-81
2023/11/03 02:20:07;;;;;;;2.40;1.00;;;;;;;-145.69;68.09;52289.91;5116338;28;20292;-82
2023/11/03 02:22:34;;;;;;;2.20;1.00;;;;;;;-145.69;67.36;52278.03;5116157;28;20638;-82
2023/11/03 02:25:03;;;;;;;1.73;1.00;;;;;;;-145.69;66.98;52337.44;5116311;28;20656;-82
2023/11/03 02:27:30;;;;;;;3.37;1.07;;;;;;;-145.69;67.55;52329.53;5116128;28;20206;-82
2023/11/03 02:29:59;;;;;;;5.53;1.40;;;;;;;-145.69;67.06;52297.84;5115636;28;20221;-81
2023/11/03 02:32:31;;;;;;;2.77;1.10;;;;;;;-145.69;66.63;52270.13;5115008;28;20586;-82
2023/11/03 02:34:57;;;;;;;2.53;0.80;;;;;;;-145.69;66.38;52315.66;5115903;28;20288;-82
2023/11/03 02:37:24;;;;;;;1.67;0.90;;;;;;;-145.69;67.34;52331.50;5116037;28;20544;-82
2023/11/03 02:39:50;;;;;;;3.63;1.07;;;;;;;-145.69;67.11;52325.56;5115800;28;20209;-81
2023/11/03 02:42:18;;;;;;;5.20;1.20;;;;;;;-145.69;67.95;52309.72;5115923;28;20204;-82
2023/11/03 02:44:45;;;;;;;7.30;1.00;;;;;;;-145.69;67.62;52345.38;5115766;28;20458;-82
2023/11/03 02:47:12;;;;;;;2.77;0.90;;;;;;;-145.69;67.50;52333.47;5115905;28;20206;-82
2023/11/03 02:49:38;;;;;;;3.83;1.10;;;;;;;-145.69;66.93;52307.75;5115531;28;20225;-82
2023/11/03 02:52:08;;;;;;;4.00;1.20;;;;;;;-145.69;66.61;52333.47;5115599;28;20197;-82
2023/11/03 02:54:34;;;;;;;3.40;1.10;;;;;;;-145.69;66.38;52315.66;5115443;28;20657;-82
2023/11/03 02:57:01;;;;;;;2.20;0.93;;;;;;;-145.69;66.37;52325.56;5115501;28;20303;-82
2023/11/03 02:59:29;;;;;;;4.57;1.07;;;;;;;-145.69;66.50;52307.75;5115678;28;20609;-81
2023/11/03 03:01:55;;;;;;;5.57;1.17;;;;;;;-145.69;67.07;52325.56;5115009;28;20193;-82
2023/11/03 03:04:22;;;;;;;2.50;0.87;;;;;;;-145.69;66.92;52297.84;5115354;28;20198;-82
2023/11/03 03:06:48;;;;;;;1.47;0.73;;;;;;;-145.69;67.08;52301.81;5115372;28;20235;-81
2023/11/03 03:09:15;;;;;;;1.30;1.00;;;;;;;-145.69;66.62;52329.53;5115323;28;20201;-82
2023/11/03 03:11:41;;;;;;;6.83;1.07;;;;;;;-145.69;66.80;52293.88;5115146;28;20311;-81
2023/11/03 03:14:08;;;;;;;7.17;1.07;;;;;;;-145.69;67.49;52307.75;5115225;28;20202;-81
2023/11/03 03:16:36;;;;;;;3.03;1.00;;;;;;;-145.69;67.83;52305.75;5114105;28;20431;-82
2023/11/03 03:19:03;;;;;;;3.40;0.80;;;;;;;-145.69;67.44;52317.66;5115182;28;20649;-81
2023/11/03 03:21:29;;;;;;;5.53;0.90;;;;;;;-145.69;67.32;52321.59;5114878;28;20233;-82
2023/11/03 03:23:56;;;;;;;2.60;1.00;;;;;;;-145.69;67.38;52270.13;5110646;28;20288;-82
2023/11/03 03:26:23;;;;;;;8.60;1.20;;;;;;;-145.69;67.34;52289.91;5114831;28;20193;-82
2023/11/03 03:28:49;;;;;;;3.07;1.03;;;;;;;-145.69;67.25;52329.53;5115140;28;20194;-81
2023/11/03 03:31:15;;;;;;;1.60;0.83;;;;;;;-145.69;67.03;52289.91;5114596;28;20228;-82
2023/11/03 03:33:43;;;;;;;2.20;0.80;;;;;;;-145.69;66.88;52289.91;5114504;28;20201;-82
2023/11/03 03:36:12;;;;;;;1.97;0.67;;;;;;;-145.69;66.60;52293.88;5114660;28;20204;-81
2023/11/03 03:38:39;;;;;;;2.97;0.93;;;;;;;-145.69;66.83;52311.69;5114822;28;20212;-82
2023/11/03 03:41:12;;;;;;;1.67;0.80;;;;;;;-145.69;66.66;52285.97;5114668;28;20198;-81
2023/11/03 03:43:38;;;;;;;5.13;1.20;;;;;;;-145.69;66.63;52295.84;5114586;28;20204;-82
2023/11/03 03:46:05;;;;;;;5.83;0.90;;;;;;;-145.69;66.58;52282.00;5114189;28;20217;-81
2023/11/03 03:48:31;;;;;;;3.67;0.70;;;;;;;-145.69;66.95;52309.72;5114672;28;20548;-82
2023/11/03 03:50:59;;;;;;;2.17;0.70;;;;;;;-145.69;66.90;52327.53;5114305;28;20227;-81
2023/11/03 03:53:25;;;;;;;2.40;1.00;;;;;;;-145.69;66.48;52295.84;5114480;27;20197;-81
2023/11/03 03:55:52;;;;;;;3.73;1.07;;;;;;;-145.69;67.38;52321.59;5114411;28;20198;-82
2023/11/03 03:58:18;;;;;;;6.30;1.13;;;;;;;-145.69;67.56;52295.84;5114231;28;20202;-82
2023/11/03 04:00:45;;;;;;;1.57;0.73;;;;;;;-145.69;67.12;52285.97;5114321;28;20205;-82
2023/11/03 04:03:11;;;;;;;2.43;1.10;;;;;;;-145.69;67.23;52289.91;5114137;28;20200;-81
2023/11/03 04:05:38;;;;;;;11.20;1.20;;;;;;;-145.69;67.11;52305.75;5114101;28;20229;-81
2023/11/03 04:08:06;;;;;;;3.80;0.90;;;;;;;-145.69;66.45;52311.69;5114336;28;20242;-82
2023/11/03 04:10:33;;;;;;;1.77;0.80;;;;;;;-145.69;66.08;52283.97;5113755;28;20210;-82
2023/11/03 04:12:59;;;;;;;3.13;0.90;;;;;;;-145.69;66.35;52272.09;5113900;28;20656;-82
2023/11/03 04:15:25;;;;;;;2.83;1.00;;;;;;;-145.69;66.46;52282.00;5113707;28;20537;-81
2023/11/03 04:17:52;;;;;;;1.33;0.60;;;;;;;-145.69;66.75;52301.81;5113939;28;20205;-81
2023/11/03 04:20:23;;;;;;;1.67;0.87;;;;;;;-145.69;67.02;52325.56;5113658;28;20209;-81
2023/11/03 04:22:49;;;;;;;2.73;1.00;;;;;;;-145.69;66.84;52293.88;5114024;28;20292;-82
2023/11/03 04:25:18;;;;;;;3.77;0.87;;;;;;;-145.69;67.32;52297.84;5113866;28;20200;-82
2023/11/03 04:27:44;;;;;;;2.70;0.70;;;;;;;-145.69;67.20;52278.03;5113474;28;20215;-82
2023/11/03 04:30:12;;;;;;;2.10;1.00;;;;;;;-145.69;67.47;52268.13;5113499;28;20213;-82
2023/11/03 04:32:38;;;;;;;5.10;1.20;;;;;;;-145.69;67.35;52305.75;5113170;28;20204;-82
2023/11/03 04:35:07;;;;;;;5.23;1.00;;;;;;;-145.69;67.30;52299.81;5113627;28;20667;-82
2023/11/03 04:37:34;;;;;;;2.00;0.90;;;;;;;-145.69;67.36;52319.63;5113472;28;20202;-82
2023/11/03 04:40:00;;;;;;;1.97;0.90;;;;;;;-145.69;67.38;52323.59;5113458;28;20656;-82
2023/11/03 04:42:28;;;;;;;2.00;0.87;;;;;;;-145.69;66.95;52325.56;5113798;28;20297;-82
2023/11/03 04:44:55;;;;;;;2.03;0.93;;;;;;;-145.69;67.18;52274.06;5113238;28;20549;-81
2023/11/03 04:47:21;;;;;;;3.97;1.13;;;;;;;-145.69;66.87;52291.91;5113382;28;20202;-81
2023/11/03 04:49:47;;;;;;;4.40;1.23;;;;;;;-145.69;66.58;52274.06;5113375;28;20216;-82
2023/11/03 04:52:14;;;;;;;4.23;1.13;;;;;;;-145.69;66.90;52295.84;5113294;28;20229;-82
2023/11/03 04:54:43;;;;;;;1.77;1.00;;;;;;;-145.69;66.79;52315.66;5113265;28;20197;-82
2023/11/03 04:57:10;;;;;;;1.97;1.13;;;;;;;-145.69;66.57;52282.00;5113046;28;20193;-81
2023/11/03 04:59:38;;;;;;;4.03;1.30;;;;;;;-145.69;66.92;52295.84;5113441;28;20204;-81
2023/11/03 05:02:06;;;;;;;6.07;1.20;;;;;;;-145.69;66.71;52285.97;5113260;28;20206;-82
2023/11/03 05:04:32;;;;;;;2.73;1.30;;;;;;;-145.69;66.60;52305.75;5112880;28;20198;-81
2023/11/03 05:06:58;;;;;;;3.40;1.00;;;;;;;-145.69;66.90;52309.72;5111011;28;20222;-81
2023/11/03 05:09:25;;;;;;;1.80;1.00;;;;;;;-145.69;67.18;52313.69;5112532;28;20193;-82
2023/11/03 05:11:51;;;;;;;4.87;1.33;;;;;;;-145.69;66.37;52258.22;5112995;28;20236;-82
2023/11/03 05:14:18;;;;;;;3.77;1.30;;;;;;;-145.69;66.90;52285.97;5113345;28;20205;-81
2023/11/03 05:16:46;;;;;;;2.80;0.93;;;;;;;-145.69;67.01;52260.22;5113113;28;20322;-82
2023/11/03 05:19:13;;;;;;;5.30;1.43;;;;;;;-145.69;66.96;52278.03;5112967;28;20190;-81
2023/11/03 05:21:39;;;;;;;2.10;1.00;;;;;;;-145.69;66.73;52278.03;5111583;28;20572;-82
2023/11/03 05:24:13;;;;;;;2.13;1.10;;;;;;;-145.69;66.85;52258.22;5111539;28;20208;-82
2023/11/03 05:26:41;;;;;;;2.77;1.20;;;;;;;-145.69;66.54;52293.88;5112696;28;20712;-82
2023/11/03 05:29:08;;;;;;;1.20;1.10;;;;;;;-145.69;67.19;52283.97;5112896;28;20297;-82
2023/11/03 05:31:34;;;;;;;2.17;1.10;;;;;;;-145.69;66.73;52250.31;5112853;28;20225;-81
2023/11/03 05:34:03;;;;;;;9.10;1.40;;;;;;;-145.69;66.01;52270.13;5112652;28;20560;-81
2023/11/03 05:36:29;;;;;;;4.33;1.00;;;;;;;-145.69;66.30;52301.81;5112812;28;20745;-82
2023/11/03 05:38:56;;;;;;;5.87;1.47;;;;;;;-145.69;66.63;52285.97;5112925;28;20209;-81
2023/11/03 05:41:23;;;;;;;7.37;1.33;;;;;;;-145.69;65.96;52321.59;5113060;28;20209;-82
2023/11/03 05:43:50;;;;;;;10.87;1.40;;;;;;;-145.69;65.73;52276.06;5112876;28;20652;-82
2023/11/03 05:46:16;;;;;;;6.80;0.90;;;;;;;-145.69;65.63;52307.75;5112896;28;20224;-82
2023/11/03 05:48:43;;;;;;;4.30;1.33;;;;;;;-145.69;65.48;52278.03;5114249;28;20509;-82
2023/11/03 05:51:12;;;;;;;3.67;1.30;;;;;;;-145.69;65.46;52282.00;5116597;28;20702;-82
2023/11/03 05:53:39;;;;;;;3.00;1.10;;;;;;;-145.69;64.98;52303.78;5116697;28;20197;-82
2023/11/03 05:56:06;;;;;;;2.93;1.20;;;;;;;-145.69;65.31;52283.97;5116416;28;20560;-81
2023/11/03 05:58:33;;;;;;;4.87;1.10;;;;;;;-145.69;64.74;52305.75;5116841;28;20594;-82
2023/11/03 06:00:59;;;;;;;4.70;1.17;;;;;;;-145.69;63.94;52289.91;5116623;28;20209;-82
2023/11/03 06:03:26;;;;;;;4.07;1.13;;;;;;;-145.69;63.88;52276.06;5115911;28;20640;-82
2023/11/03 06:05:52;;;;;;;7.30;1.10;;;;;;;-145.69;64.56;52282.00;5116253;28;20221;-82
2023/11/03 06:08:20;;;;;;;2.40;1.13;;;;;;;-145.69;64.20;52289.91;5115828;28;20201;-82
2023/11/03 06:10:48;;;;;;;3.50;1.10;;;;;;;-145.69;64.96;52285.97;5116190;28;20228;-81
2023/11/03 06:13:14;;;;;;;3.23;1.30;;;;;;;-145.69;64.70;52293.88;5116385;27;20197;-82
2023/11/03 06:15:41;;;;;;;2.20;1.03;;;;;;;-145.69;64.56;52250.31;5116282;28;20660;-82
2023/11/03 06:18:07;;;;;;;4.27;1.70;;;;;;;-145.69;64.79;52278.03;5116328;28;20505;-82
2023/11/03 06:20:34;;;;;;;2.67;1.17;;;;;;;-145.69;64.65;52287.94;5116262;28;20204;-82
2023/11/03 06:23:01;;;;;;;4.67;1.13;;;;;;;-145.69;65.01;52270.13;5116163;28;20198;-82
2023/11/03 06:25:30;;;;;;;2.50;1.10;;;;;;;-145.69;64.66;52282.00;5116404;28;20197;-83
2023/11/03 06:27:56;;;;;;;3.97;1.20;;;;;;;-145.69;64.45;52264.16;5116174;28;20669;-82
2023/11/03 06:30:23;;;;;;;9.77;1.30;;;;;;;-145.69;64.51;52262.19;5116017;28;20285;-82
2023/11/03 06:32:50;;;;;;;4.50;1.40;;;;;;;-145.69;64.00;52266.16;5116096;28;20228;-82
2023/11/03 06:35:16;;;;;;;3.30;1.37;;;;;;;-145.69;64.22;52282.00;5115766;28;20266;-82
2023/11/03 06:37:43;;;;;;;4.10;1.10;;;;;;;-145.69;64.18;52287.94;5115870;28;20673;-82
2023/11/03 06:40:12;;;;;;;4.37;1.03;;;;;;;-145.69;64.10;52282.00;5115516;28;20267;-82
2023/11/03 06:42:41;;;;;;;5.20;1.37;;;;;;;-145.69;64.51;52283.97;5115653;28;20193;-83
2023/11/03 06:45:09;;;;;;;3.67;1.20;;;;;;;-145.69;64.27;52250.31;5115591;28;20208;-82
2023/11/03 06:47:35;;;;;;;7.77;1.30;;;;;;;-145.69;64.44;52297.84;5115719;28;20220;-82
2023/11/03 06:50:03;;;;;;;4.87;1.60;;;;;;;-145.69;64.50;52278.03;5115679;28;20199;-82
2023/11/03 06:52:29;;;;;;;5.77;1.10;;;;;;;-145.69;64.01;52252.28;5115622;28;20261;-82
2023/11/03 06:54:56;;;;;;;1.93;1.20;;;;;;;-145.69;64.13;52282.00;5115553;27;20204;-82
2023/11/03 06:57:25;;;;;;;3.73;1.20;;;;;;;-145.69;64.19;52278.03;5115647;28;20201;-82
2023/11/03 06:59:53;;;;;;;4.87;1.10;;;;;;;-145.69;64.39;52236.44;5115337;28;20225;-82
2023/11/03 07:02:20;;;;;;;1.97;1.00;;;;;;;-145.69;64.51;52270.13;5115667;28;20232;-82
2023/11/03 07:04:47;;;;;;;1.07;0.87;;;;;;;-145.69;64.30;52262.19;5115256;28;20212;-82
2023/11/03 07:07:13;;;;;;;3.40;1.03;;;;;;;-145.69;64.44;52280.00;5115371;28;20237;-80
2023/11/03 07:09:40;;;;;;;6.50;1.17;;;;;;;-145.69;64.48;52274.06;5114971;28;20224;-80
2023/11/03 07:12:07;;;;;;;5.90;2.47;;;;;;;-145.69;64.36;52272.09;5114842;28;20217;-80
2023/11/03 07:14:35;;;;;;;27.70;10.63;;;;;;;-145.69;64.37;52256.25;5114838;28;20194;-80
2023/11/03 07:17:03;;;;;;;28.40;10.43;;;;;;;-145.69;64.32;52260.22;5115183;28;20197;-80
2023/11/03 07:19:29;;;;;;;33.60;10.73;;;;;;;-145.69;64.60;52274.06;5115123;28;20205;-80
2023/11/03 07:21:57;;;;;;;16.60;5.37;;;;;;;-145.69;63.71;52266.16;5115039;28;20201;-80
2023/11/03 07:24:23;;;;;;;11.47;3.43;;;;;;;-145.69;63.84;52266.16;5114889;28;20251;-80
2023/11/03 07:26:51;;;;;;;13.63;2.00;;;;;;;-145.69;62.89;52283.97;5111772;28;20254;-80
2023/11/03 07:29:17;;;;;;;5.40;1.70;;;;;;;-145.69;63.20;52258.22;5094700;28;20202;-81
2023/11/03 07:31:44;;;;;;;5.47;1.40;;;;;;;-145.69;63.56;52268.13;5094603;28;20282;-80
2023/11/03 07:34:12;;;;;;;11.37;1.80;;;;;;;-145.69;62.04;52262.19;5103889;28;20190;-81
2023/11/03 07:36:38;;;;;;;2.63;1.27;;;;;;;-145.69;62.56;52289.91;5114834;28;20200;-81
2023/11/03 07:39:06;;;;;;;6.20;2.10;;;;;;;-145.69;62.71;52266.16;5114765;28;20283;-80
2023/11/03 07:41:33;;;;;;;2.47;1.10;;;;;;;-145.69;62.61;52278.03;5127334;27;20201;-81
2023/11/03 07:44:00;;;;;;;5.80;1.50;;;;;;;-145.69;62.19;52280.00;5135426;27;20209;-81
2023/11/03 07:46:27;;;;;;;4.50;1.50;;;;;;;-145.69;62.04;52289.91;5114684;27;20219;-81
2023/11/03 07:48:54;;;;;;;5.60;2.03;;;;;;;-145.69;61.84;52268.13;5114582;28;20250;-81
2023/11/03 07:51:22;;;;;;;5.83;1.93;;;;;;;-145.69;61.65;52248.34;5114301;28;20630;-81
2023/11/03 07:53:48;;;;;;;3.73;2.10;;;;;;;-145.69;61.88;52274.06;5114382;28;20233;-81
2023/11/03 07:56:16;;;;;;;5.57;2.43;;;;;;;-145.69;60.99;52258.22;5114565;28;20205;-81
2023/11/03 07:58:46;;;;;;;5.70;4.23;;;;;;;-145.69;60.81;52258.22;5114505;28;20197;-81
2023/11/03 08:01:13;;;;;;;5.37;3.50;;;;;;;-145.69;60.85;52262.19;5113977;28;20205;-81
2023/11/03 08:03:39;;;;;;;5.40;2.00;;;;;;;-145.69;59.89;52278.03;5113851;28;20293;-73
2023/11/03 08:06:06;;;;;;;2.63;1.40;;;;;;;-145.69;60.06;52228.53;5114124;28;20242;-81
2023/11/03 08:08:34;;;;;;;6.60;1.57;;;;;;;-145.69;59.14;52238.44;5114352;28;20202;-81
2023/11/03 08:11:02;;;;;;;10.40;1.40;;;;;;;-145.69;55.58;52246.34;5113576;28;20204;-81
2023/11/03 08:13:29;;;;;;;3.03;1.00;;;;;;;-145.69;55.10;52254.28;5114110;28;20232;-81
2023/11/03 08:15:56;;;;;;;5.53;1.23;;;;;;;-145.69;56.70;52254.28;5113959;28;20611;-81
2023/11/03 08:18:27;;;;;;;8.07;1.70;;;;;;;-145.69;55.14;52238.44;5113758;28;20197;-81
2023/11/03 08:20:53;;;;;;;6.60;1.90;;;;;;;-145.69;55.40;52264.16;5113820;28;20220;-81
2023/11/03 08:23:23;;;;;;;14.40;2.53;;;;;;;-145.69;55.04;52238.44;5113943;28;20205;-81
2023/11/03 08:25:50;;;;;;;7.33;2.00;;;;;;;-145.69;53.30;52210.72;5113379;28;20664;-81
2023/11/03 08:28:17;;;;;;;5.30;1.80;;;;;;;-145.69;53.96;52234.47;5113874;28;20246;-81
2023/11/03 08:30:43;;;;;;;3.50;1.40;;;;;;;-145.69;53.47;52238.44;5113459;28;20196;-80
2023/11/03 08:33:10;;;;;;;3.60;1.60;;;;;;;-145.69;53.23;52226.53;5113789;28;20304;-81
2023/11/03 08:35:37;;;;;;;6.17;1.80;;;;;;;-145.69;52.82;52250.31;5113788;28;20196;-81
2023/11/03 08:38:05;;;;;;;5.97;2.40;;;;;;;-145.69;52.97;52260.22;5113799;28;20620;-82
2023/11/03 08:40:31;;;;;;;1.93;1.00;;;;;;;-145.69;51.30;52246.34;5113781;27;20201;-81
2023/11/03 08:42:59;;;;;;;2.80;1.30;;;;;;;-145.69;51.35;52218.63;5113649;28;20201;-81
2023/11/03 08:45:26;;;;;;;5.77;1.53;;;;;;;-145.69;51.11;52238.44;5113626;28;20197;-81
2023/11/03 08:47:52;;;;;;;6.60;1.67;;;;;;;-145.69;51.22;52250.31;5113289;28;20675;-81
2023/11/03 08:50:19;;;;;;;5.37;1.43;;;;;;;-145.69;50.71;52230.50;5113528;28;20201;-81
2023/11/03 08:52:47;;;;;;;1.83;0.93;;;;;;;-145.69;49.69;52192.88;5113349;28;20232;-80
2023/11/03 08:55:14;;;;;;;6.80;1.37;;;;;;;-145.69;49.71;52218.63;5113723;28;20212;-81
2023/11/03 08:57:42;;;;;;;5.80;1.63;;;;;;;-145.69;51.46;52216.66;5113309;28;20296;-81
2023/11/03 09:00:12;;;;;;;8.80;2.07;;;;;;;-145.69;50.59;52214.66;5113037;28;20201;-81
2023/11/03 09:02:38;;;;;;;4.77;1.43;;;;;;;-145.69;51.30;52256.25;5113060;28;20280;-80
2023/11/03 09:05:07;;;;;;;3.23;1.40;;;;;;;-145.69;50.28;52214.66;5112518;28;20197;-81
2023/11/03 09:07:35;;;;;;;2.03;0.90;;;;;;;-145.69;49.25;52194.88;5113291;28;20229;-81
2023/11/03 09:10:03;;;;;;;5.57;1.20;;;;;;;-145.69;49.78;52214.66;5112890;28;20717;-81
2023/11/03 09:12:30;;;;;;;3.87;0.90;;;;;;;-145.69;49.12;52202.78;5113187;28;20630;-82
2023/11/03 09:14:56;;;;;;;1.60;0.90;;;;;;;-145.69;48.74;52202.78;5112870;28;20216;-83
2023/11/03 09:17:24;;;;;;;3.50;1.10;;;;;;;-145.69;48.97;52218.63;5113413;28;20205;-82
2023/11/03 09:19:51;;;;;;;1.43;0.60;;;;;;;-145.69;48.69;52222.59;5113087;28;20207;-82
2023/11/03 09:22:18;;;;;;;3.70;1.10;;;;;;;-145.69;49.35;52220.59;5111805;28;20196;-81
2023/11/03 09:24:45;;;;;;;1.83;0.80;;;;;;;-145.69;49.46;52198.81;5101877;27;20652;-80
2023/11/03 09:27:14;;;;;;;3.23;0.83;;;;;;;-145.69;49.20;52210.72;5096858;28;20255;-82
2023/11/03 09:29:41;;;;;;;4.03;0.90;;;;;;;-145.69;49.22;52232.50;5102563;28;20216;-81
2023/11/03 09:32:09;;;;;;;4.23;1.00;;;;;;;-145.69;49.10;52222.59;5117205;28;20224;-81
2023/11/03 09:34:37;;;;;;;5.17;1.63;;;;;;;-145.69;49.72;52236.44;5116625;28;20196;-81
2023/11/03 09:37:06;;;;;;;1.90;1.07;;;;;;;-145.69;49.45;52226.53;5116214;28;20641;-82
2023/11/03 09:39:35;;;;;;;5.63;1.17;;;;;;;-145.69;49.20;52202.78;5117041;28;20251;-82
2023/11/03 09:42:04;;;;;;;6.07;1.53;;;;;;;-145.69;48.28;52228.53;5117029;28;20203;-83
2023/11/03 09:44:31;;;;;;;4.53;0.80;;;;;;;-145.69;47.50;52173.09;5116686;28;20284;-82
2023/11/03 09:47:00;;;;;;;7.27;1.40;;;;;;;-145.69;48.46;52218.63;5116802;28;20208;-82
2023/11/03 09:49:26;;;;;;;3.03;1.00;;;;;;;-145.69;48.07;52206.75;5116713;28;20660;-82
2023/11/03 09:51:58;;;;;;;3.30;1.47;;;;;;;-145.69;48.29;52198.81;5116681;28;20718;-82
2023/11/03 09:54:26;;;;;;;2.93;1.10;;;;;;;-145.69;47.83;52190.91;5116537;28;20648;-81
2023/11/03 09:56:53;;;;;;;3.73;1.10;;;;;;;-145.69;48.52;52216.66;5116560;28;20224;-82
2023/11/03 09:59:21;;;;;;;2.97;1.13;;;;;;;-145.69;49.24;52226.53;5116646;28;20205;-82
2023/11/03 10:01:47;;;;;;;2.40;0.90;;;;;;;-145.69;47.61;52206.75;5116370;28;20189;-82
2023/11/03 10:04:15;;;;;;;3.03;1.10;;;;;;;-145.69;48.34;52194.88;5116245;28;20687;-81
2023/11/03 10:06:41;;;;;;;2.73;1.00;;;;;;;-145.69;48.93;52188.91;5116355;28;20278;-82
2023/11/03 10:09:13;;;;;;;6.10;1.20;;;;;;;-145.69;49.50;52220.59;5116188;28;20652;-82
2023/11/03 10:11:40;;;;;;;2.30;0.80;;;;;;;-145.69;48.19;52202.78;5117049;28;20294;-83
2023/11/03 10:14:07;;;;;;;4.53;1.20;;;;;;;-145.69;47.55;52202.78;5116527;28;20193;-82
2023/11/03 10:16:33;;;;;;;1.67;0.80;;;;;;;-145.69;47.23;52198.81;5116391;28;20197;-81
2023/11/03 10:19:00;;;;;;;9.07;3.50;;;;;;;-145.69;47.22;52196.84;5116607;28;20201;-82
2023/11/03 10:21:26;;;;;;;3.70;1.53;;;;;;;-145.69;46.25;52212.69;5116132;28;20234;-82
2023/11/03 10:23:56;;;;;;;10.23;3.03;;;;;;;-145.69;46.99;52202.78;5116211;28;20691;-82
2023/11/03 10:26:24;;;;;;;7.43;2.63;;;;;;;-145.69;46.47;52196.84;5116113;28;20220;-82
2023/11/03 10:28:51;;;;;;;2.30;1.00;;;;;;;-145.69;46.08;52181.00;5115607;28;20205;-81
2023/11/03 10:31:20;;;;;;;4.37;0.83;;;;;;;-145.69;46.29;52159.22;5115739;28;20598;-81
2023/11/03 10:33:48;;;;;;;2.90;0.77;;;;;;;-145.69;46.20;52169.13;5115444;28;20311;-82
2023/11/03 10:36:15;;;;;;;4.53;1.00;;;;;;;-145.69;46.26;52190.91;5115568;28;20284;-81
2023/11/03 10:38:42;;;;;;;1.57;1.00;;;;;;;-145.69;46.75;52177.03;5116157;28;20197;-81
2023/11/03 10:41:10;;;;;;;3.13;0.87;;;;;;;-145.69;46.01;52212.69;5115514;28;20201;-81
2023/11/03 10:43:40;;;;;;;2.93;0.70;;;;;;;-145.69;45.69;52159.22;5115938;28;20660;-83
2023/11/03 10:46:18;;;;;;;3.45;0.70;;;;;;;-145.69;46.08;52175.06;5115680;28;20541;-82
2023/11/03 10:48:46;;;;;;;2.50;0.80;;;;;;;-145.69;45.76;52175.06;5115760;28;20193;-81
2023/11/03 10:51:21;;;;;;;4.43;0.70;;;;;;;-145.69;44.99;52167.13;5115772;28;20208;-80
2023/11/03 10:53:58;;;;;;;2.70;0.93;;;;;;;-145.69;45.63;52155.25;5100134;28;20248;-81
2023/11/03 10:56:25;;;;;;;3.85;0.80;;;;;;;-145.69;45.68;52208.72;5111435;28;20205;-81
2023/11/03 10:58:54;;;;;;;2.30;0.93;;;;;;;-145.69;44.45;52173.09;5115613;28;20204;-81
2023/11/03 11:01:28;;;;;;;4.33;1.13;;;;;;;-145.69;45.44;52212.69;5115066;28;20660;-82
2023/11/03 11:04:02;;;;;;;3.80;1.53;;;;;;;-145.69;45.34;52192.88;5114983;28;20200;-82
2023/11/03 11:06:32;;;;;;;2.28;0.80;;;;;;;-145.69;46.76;52208.72;5114567;28;20802;-81
2023/11/03 11:09:05;;;;;;;2.00;0.90;;;;;;;-145.69;45.63;52196.84;5115662;28;20196;-81
2023/11/03 11:11:32;;;;;;;2.37;1.20;;;;;;;-145.69;46.71;52194.88;5115159;28;20194;-80
2023/11/03 11:14:19;;;;;;;10.27;1.10;;;;;;;-145.69;45.02;52188.91;5115229;28;20232;-80
2023/11/03 11:16:46;;;;;;;2.85;1.15;;;;;;;-145.69;44.69;52186.94;5115065;28;20820;-81